createdAt,value
2022-11-12T00:00:30.462Z,101462.57
2022-11-12T00:03:24.260Z,101464.02
2022-11-12T00:06:15.604Z,101462.41
2022-11-12T00:09:06.598Z,101463.56
2022-11-12T00:11:57.578Z,101465.70
2022-11-12T00:14:48.751Z,101474.06
2022-11-12T00:17:40.387Z,101468.19
2022-11-12T00:20:31.508Z,101472.23
2022-11-12T00:23:22.431Z,101468.34
2022-11-12T00:26:13.248Z,101476.56
2022-11-12T00:29:04.566Z,101471.69
2022-11-12T00:31:55.658Z,101469.25
2022-11-12T00:34:49.555Z,101468.11
2022-11-12T00:37:40.576Z,101478.41
2022-11-12T00:40:32.372Z,101486.24
2022-11-12T00:43:24.807Z,101487.20
2022-11-12T00:46:15.745Z,101489.89
2022-11-12T00:49:06.851Z,101486.21
2022-11-12T00:51:58.229Z,101485.22
2022-11-12T00:54:49.090Z,101477.44
2022-11-12T00:57:42.333Z,101483.28
2022-11-12T01:00:33.245Z,101484.58
2022-11-12T01:03:24.564Z,101489.70
2022-11-12T01:06:20.465Z,101492.39
2022-11-12T01:09:11.849Z,101493.77
2022-11-12T01:12:02.652Z,101502.90
2022-11-12T01:14:54.009Z,101508.33
2022-11-12T01:17:45.433Z,101509.08
2022-11-12T01:20:39.431Z,101499.70
2022-11-12T01:23:30.642Z,101501.63
2022-11-12T01:26:23.877Z,101497.20
2022-11-12T01:29:15.133Z,101495.31
2022-11-12T01:32:06.340Z,101494.61
2022-11-12T01:34:57.829Z,101492.80
2022-11-12T01:37:48.241Z,101498.59
2022-11-12T01:40:39.932Z,101505.60
2022-11-12T01:43:30.872Z,101496.67
2022-11-12T01:46:29.183Z,101493.47
2022-11-12T01:49:24.640Z,101501.02
2022-11-12T01:52:31.580Z,101506.86
2022-11-12T01:55:29.374Z,101497.58
2022-11-12T01:58:22.565Z,101504.95
2022-11-12T02:01:13.906Z,101508.80
2022-11-12T02:04:04.576Z,101511.15
2022-11-12T02:06:57.978Z,101508.48
2022-11-12T02:09:48.769Z,101507.70
2022-11-12T02:12:58.295Z,101501.50
2022-11-12T02:15:49.459Z,101498.56
2022-11-12T02:18:40.176Z,101492.17
2022-11-12T02:21:31.970Z,101491.95
2022-11-12T02:24:27.466Z,101488.30
2022-11-12T02:27:18.510Z,101493.86
2022-11-12T02:30:10.930Z,101493.31
2022-11-12T02:33:04.155Z,101497.51
2022-11-12T02:35:55.356Z,101493.39
2022-11-12T02:38:46.199Z,101492.22
2022-11-12T02:41:38.912Z,101492.30
2022-11-12T02:44:30.533Z,101490.22
2022-11-12T02:47:22.155Z,101491.59
2022-11-12T02:50:14.049Z,101500.33
2022-11-12T02:53:05.182Z,101505.19
2022-11-12T02:55:56.486Z,101503.07
2022-11-12T02:58:46.951Z,101496.96
2022-11-12T03:01:37.520Z,101495.90
2022-11-12T03:04:28.711Z,101499.62
2022-11-12T03:07:19.571Z,101496.17
2022-11-12T03:10:11.119Z,101489.78
2022-11-12T03:13:03.911Z,101491.70
2022-11-12T03:16:01.066Z,101492.99
2022-11-12T03:18:51.930Z,101495.73
2022-11-12T03:21:43.341Z,101496.25
2022-11-12T03:24:34.189Z,101497.94
2022-11-12T03:27:24.798Z,101492.10
2022-11-12T03:30:15.693Z,101494.49
2022-11-12T03:33:11.564Z,101477.29
2022-11-12T03:36:02.712Z,101485.28
2022-11-12T03:38:53.488Z,101479.98
2022-11-12T03:41:44.777Z,101489.12
2022-11-12T03:44:36.435Z,101488.38
2022-11-12T03:47:27.345Z,101489.82
2022-11-12T03:50:20.470Z,101487.39
2022-11-12T03:53:11.092Z,101490.56
2022-11-12T03:56:02.045Z,101489.53
2022-11-12T03:58:52.780Z,101482.06
2022-11-12T04:01:44.117Z,101482.98
2022-11-12T04:04:52.397Z,101488.17
2022-11-12T04:08:02.058Z,101492.13
2022-11-12T04:10:54.062Z,101504.23
2022-11-12T04:13:48.860Z,101497.98
2022-11-12T04:16:57.183Z,101500.78
2022-11-12T04:20:03.290Z,101509.86
2022-11-12T04:22:54.001Z,101513.50
2022-11-12T04:26:02.584Z,101508.47
2022-11-12T04:29:11.353Z,101514.20
2022-11-12T04:32:01.925Z,101513.27
2022-11-12T04:34:54.173Z,101523.27
2022-11-12T04:37:45.556Z,101521.13
2022-11-12T04:40:54.474Z,101531.49
2022-11-12T04:44:03.072Z,101535.98
2022-11-12T04:46:54.005Z,101545.95
2022-11-12T04:49:44.988Z,101549.08
2022-11-12T04:52:36.924Z,101541.06
2022-11-12T04:55:28.282Z,101535.28
2022-11-12T04:58:19.272Z,101544.91
2022-11-12T05:01:10.193Z,101545.41
2022-11-12T05:04:01.557Z,101547.76
2022-11-12T05:06:53.232Z,101549.36
2022-11-12T05:09:45.005Z,101550.75
2022-11-12T05:12:36.569Z,101552.70
2022-11-12T05:15:28.040Z,101553.95
2022-11-12T05:18:18.979Z,101554.36
2022-11-12T05:21:27.900Z,101554.30
2022-11-12T05:24:40.576Z,101554.60
2022-11-12T05:27:17.882Z,101552.97
2022-11-12T05:30:10.259Z,101550.97
2022-11-12T05:33:01.299Z,101563.33
2022-11-12T05:35:52.318Z,101572.16
2022-11-12T05:38:43.171Z,101567.52
2022-11-12T05:41:51.388Z,101569.33
2022-11-12T05:44:27.064Z,101575.20
2022-11-12T05:47:18.159Z,101573.52
2022-11-12T05:50:10.415Z,101571.06
2022-11-12T05:53:01.300Z,101560.63
2022-11-12T05:55:52.105Z,101557.94
2022-11-12T05:58:42.630Z,101556.55
2022-11-12T06:01:33.899Z,101553.49
2022-11-12T06:04:24.844Z,101556.89
2022-11-12T06:07:15.962Z,101554.84
2022-11-12T06:10:08.216Z,101564.16
2022-11-12T06:12:59.322Z,101557.68
2022-11-12T06:15:52.615Z,101557.43
2022-11-12T06:18:43.650Z,101553.08
2022-11-12T06:21:34.482Z,101556.48
2022-11-12T06:24:27.484Z,101556.67
2022-11-12T06:27:18.278Z,101543.77
2022-11-12T06:30:10.942Z,101538.48
2022-11-12T06:33:01.669Z,101539.31
2022-11-12T06:36:00.896Z,101542.45
2022-11-12T06:38:52.430Z,101542.70
2022-11-12T06:41:43.470Z,101547.06
2022-11-12T06:44:34.984Z,101553.16
2022-11-12T06:47:26.255Z,101549.98
2022-11-12T06:50:17.846Z,101547.44
2022-11-12T06:53:09.072Z,101542.20
2022-11-12T06:56:07.812Z,101538.47
2022-11-12T06:58:58.667Z,101529.17
2022-11-12T07:01:49.629Z,101516.08
2022-11-12T07:04:41.220Z,101515.34
2022-11-12T07:07:32.318Z,101517.68
2022-11-12T07:10:24.057Z,101523.28
2022-11-12T07:13:14.721Z,101520.66
2022-11-12T07:16:09.201Z,101521.42
2022-11-12T07:19:02.326Z,101527.66
2022-11-12T07:21:53.979Z,101527.92
2022-11-12T07:24:46.468Z,101531.39
2022-11-12T07:27:37.653Z,101530.61
2022-11-12T07:30:28.601Z,101533.58
2022-11-12T07:33:19.957Z,101532.20
2022-11-12T07:36:15.277Z,101536.11
2022-11-12T07:39:06.743Z,101538.99
2022-11-12T07:41:57.483Z,101535.73
2022-11-12T07:44:48.696Z,101530.68
2022-11-12T07:47:39.593Z,101529.52
2022-11-12T07:50:30.861Z,101533.95
2022-11-12T07:53:21.559Z,101528.50
2022-11-12T07:56:16.277Z,101522.94
2022-11-12T07:59:08.178Z,101522.55
2022-11-12T08:01:58.906Z,101521.30
2022-11-12T08:04:49.619Z,101529.34
2022-11-12T08:07:41.158Z,101513.39
2022-11-12T08:10:31.831Z,101515.91
2022-11-12T08:13:22.920Z,101523.60
2022-11-12T08:16:14.231Z,101520.65
2022-11-12T08:19:05.626Z,101520.26
2022-11-12T08:21:57.442Z,101512.86
2022-11-12T08:24:47.798Z,101506.89
2022-11-12T08:27:39.949Z,101496.12
2022-11-12T08:30:31.761Z,101488.32
2022-11-12T08:33:23.173Z,101482.84
2022-11-12T08:36:16.884Z,101481.68
2022-11-12T08:39:08.866Z,101478.95
2022-11-12T08:41:59.882Z,101477.01
2022-11-12T08:44:50.357Z,101481.31
2022-11-12T08:47:41.770Z,101475.97
2022-11-12T08:50:32.792Z,101480.38
2022-11-12T08:53:25.199Z,101484.55
2022-11-12T08:56:16.520Z,101480.41
2022-11-12T08:59:07.702Z,101480.55
2022-11-12T09:01:58.683Z,101484.81
2022-11-12T09:04:49.588Z,101483.14
2022-11-12T09:07:49.908Z,101477.41
2022-11-12T09:10:33.589Z,101475.47
2022-11-12T09:13:25.192Z,101464.39
2022-11-12T09:16:16.334Z,101458.67
2022-11-12T09:19:06.932Z,101458.54
2022-11-12T09:21:57.690Z,101455.92
2022-11-12T09:24:48.541Z,101455.15
2022-11-12T09:27:47.258Z,101448.77
2022-11-12T09:30:33.548Z,101454.64
2022-11-12T09:33:28.298Z,101446.05
2022-11-12T09:36:20.075Z,101445.91
2022-11-12T09:39:11.983Z,101447.73
2022-11-12T09:42:10.261Z,101445.13
2022-11-12T09:45:17.623Z,101447.73
2022-11-12T09:48:10.467Z,101445.77
2022-11-12T09:51:07.100Z,101441.08
2022-11-12T09:54:05.461Z,101440.19
2022-11-12T09:56:56.456Z,101436.66
2022-11-12T09:59:48.097Z,101442.55
2022-11-12T10:02:46.395Z,101444.61
2022-11-12T10:05:42.516Z,101437.34
2022-11-12T10:08:38.832Z,101450.61
2022-11-12T10:12:22.447Z,101444.73
2022-11-12T10:15:57.108Z,101439.02
2022-11-12T10:19:16.200Z,101439.55
2022-11-12T10:22:36.636Z,101435.23
2022-11-12T10:25:29.275Z,101434.97
2022-11-12T10:28:35.664Z,101429.13
2022-11-12T10:31:23.844Z,101433.27
2022-11-12T10:34:20.985Z,101429.27
2022-11-12T10:37:47.348Z,101425.98
2022-11-12T10:40:41.853Z,101417.89
2022-11-12T10:43:32.792Z,101422.87
2022-11-12T10:46:27.802Z,101412.05
2022-11-12T10:49:23.272Z,101417.13
2022-11-12T10:52:25.752Z,101409.72
2022-11-12T10:55:34.711Z,101402.29
2022-11-12T10:58:25.755Z,101398.11
2022-11-12T11:01:19.582Z,101387.55
2022-11-12T11:04:23.157Z,101380.11
2022-11-12T11:07:25.128Z,101366.16
2022-11-12T11:10:27.614Z,101363.02
2022-11-12T11:13:29.290Z,101367.95
2022-11-12T11:16:24.066Z,101364.64
2022-11-12T11:19:15.879Z,101365.52
2022-11-12T11:22:47.473Z,101353.75
2022-11-12T11:25:39.767Z,101359.13
2022-11-12T11:28:59.111Z,101360.52
2022-11-12T11:32:03.270Z,101360.35
2022-11-12T11:35:33.643Z,101363.86
2022-11-12T11:38:56.632Z,101359.37
2022-11-12T11:42:19.844Z,101354.40
2022-11-12T11:45:26.697Z,101357.01
2022-11-12T11:48:48.877Z,101357.91
2022-11-12T11:52:06.020Z,101357.86
2022-11-12T11:55:31.895Z,101364.34
2022-11-12T11:58:49.947Z,101361.49
2022-11-12T12:02:00.378Z,101363.25
2022-11-12T12:05:30.940Z,101360.92
2022-11-12T12:08:38.507Z,101353.34
2022-11-12T12:11:37.387Z,101349.14
2022-11-12T12:14:35.903Z,101341.84
2022-11-12T12:17:49.687Z,101339.85
2022-11-12T12:21:10.511Z,101335.65
2022-11-12T12:24:32.785Z,101337.36
2022-11-12T12:27:31.152Z,101338.95
2022-11-12T12:30:26.193Z,101343.15
2022-11-12T12:33:30.460Z,101338.59
2022-11-12T12:36:39.496Z,101341.31
2022-11-12T12:39:45.070Z,101338.30
2022-11-12T12:42:40.847Z,101334.75
2022-11-12T12:45:46.316Z,101334.09
2022-11-12T12:48:40.325Z,101332.80
2022-11-12T12:51:33.807Z,101340.21
2022-11-12T12:54:45.456Z,101340.09
2022-11-12T12:57:40.732Z,101335.65
2022-11-12T13:00:42.425Z,101332.80
2022-11-12T13:03:50.833Z,101329.13
2022-11-12T13:06:50.057Z,101324.61
2022-11-12T13:09:42.024Z,101321.35
2022-11-12T13:13:07.463Z,101313.94
2022-11-12T13:16:00.229Z,101313.16
2022-11-12T13:18:58.360Z,101312.22
2022-11-12T13:21:48.994Z,101312.87
2022-11-12T13:25:17.179Z,101307.24
2022-11-12T13:28:12.834Z,101305.53
2022-11-12T13:31:05.118Z,101305.94
2022-11-12T13:33:56.373Z,101309.00
2022-11-12T13:37:05.423Z,101311.98
2022-11-12T13:39:56.248Z,101298.05
2022-11-12T13:42:51.436Z,101302.73
2022-11-12T13:46:01.838Z,101292.06
2022-11-12T13:49:04.029Z,101301.06
2022-11-12T13:51:56.914Z,101301.47
2022-11-12T13:54:47.967Z,101296.14
2022-11-12T13:57:39.433Z,101291.58
2022-11-12T14:00:33.092Z,101289.09
2022-11-12T14:03:24.395Z,101280.78
2022-11-12T14:06:37.036Z,101282.69
2022-11-12T14:09:58.109Z,101279.19
2022-11-12T14:12:53.710Z,101273.73
2022-11-12T14:15:52.862Z,101273.25
2022-11-12T14:18:57.699Z,101263.77
2022-11-12T14:22:03.143Z,101266.82
2022-11-12T14:24:58.658Z,101264.38
2022-11-12T14:27:51.505Z,101256.73
2022-11-12T14:30:46.488Z,101254.42
2022-11-12T14:33:38.262Z,101260.56
2022-11-12T14:36:30.940Z,101256.57
2022-11-12T14:39:21.732Z,101253.87
2022-11-12T14:42:15.133Z,101251.27
2022-11-12T14:45:07.479Z,101246.91
2022-11-12T14:47:59.139Z,101239.62
2022-11-12T14:50:52.568Z,101234.94
2022-11-12T14:53:57.474Z,101237.70
2022-11-12T14:56:50.370Z,101237.97
2022-11-12T14:59:41.891Z,101234.63
2022-11-12T15:02:50.348Z,101227.59
2022-11-12T15:05:28.421Z,101238.00
2022-11-12T15:08:32.690Z,101231.13
2022-11-12T15:11:33.944Z,101229.14
2022-11-12T15:14:26.830Z,101225.11
2022-11-12T15:17:26.083Z,101230.31
2022-11-12T15:20:19.201Z,101219.66
2022-11-12T15:23:20.121Z,101220.05
2022-11-12T15:26:15.370Z,101206.63
2022-11-12T15:29:31.995Z,101199.87
2022-11-12T15:32:27.726Z,101186.58
2022-11-12T15:35:32.884Z,101187.84
2022-11-12T15:38:36.321Z,101181.06
2022-11-12T15:41:32.124Z,101177.55
2022-11-12T15:44:24.548Z,101171.33
2022-11-12T15:47:21.980Z,101168.31
2022-11-12T15:50:24.634Z,101167.80
2022-11-12T15:53:17.118Z,101159.61
2022-11-12T15:56:14.760Z,101154.28
2022-11-12T15:59:06.009Z,101151.43
2022-11-12T16:01:56.791Z,101150.41
2022-11-12T16:04:47.568Z,101143.13
2022-11-12T16:07:39.603Z,101137.15
2022-11-12T16:10:31.025Z,101140.97
2022-11-12T16:13:36.570Z,101140.10
2022-11-12T16:16:27.871Z,101124.36
2022-11-12T16:19:20.667Z,101127.92
2022-11-12T16:22:14.597Z,101128.59
2022-11-12T16:25:08.576Z,101127.73
2022-11-12T16:28:01.149Z,101133.20
2022-11-12T16:30:52.763Z,101136.23
2022-11-12T16:33:43.754Z,101138.70
2022-11-12T16:36:35.247Z,101140.14
2022-11-12T16:39:26.353Z,101148.73
2022-11-12T16:42:17.702Z,101148.22
2022-11-12T16:45:13.235Z,101149.39
2022-11-12T16:48:15.576Z,101154.73
2022-11-12T16:51:06.724Z,101149.42
2022-11-12T16:53:58.212Z,101142.81
2022-11-12T16:56:49.727Z,101141.90
2022-11-12T16:59:41.994Z,101145.28
2022-11-12T17:02:36.872Z,101149.45
2022-11-12T17:05:28.048Z,101158.15
2022-11-12T17:08:20.654Z,101153.86
2022-11-12T17:11:12.428Z,101159.33
2022-11-12T17:14:04.332Z,101163.73
2022-11-12T17:16:55.846Z,101167.63
2022-11-12T17:19:49.249Z,101162.17
2022-11-12T17:22:41.433Z,101155.92
2022-11-12T17:25:32.273Z,101160.72
2022-11-12T17:28:23.376Z,101169.94
2022-11-12T17:31:20.389Z,101158.89
2022-11-12T17:34:12.801Z,101155.80
2022-11-12T17:37:03.901Z,101153.06
2022-11-12T17:39:58.992Z,101152.27
2022-11-12T17:42:50.714Z,101151.64
2022-11-12T17:45:54.282Z,101138.88
2022-11-12T17:48:45.769Z,101150.07
2022-11-12T17:51:37.019Z,101144.48
2022-11-12T17:54:29.222Z,101142.91
2022-11-12T17:57:32.616Z,101132.79
2022-11-12T18:00:25.087Z,101128.77
2022-11-12T18:03:16.535Z,101113.20
2022-11-12T18:06:11.887Z,101116.56
2022-11-12T18:09:17.958Z,101113.06
2022-11-12T18:12:10.458Z,101113.06
2022-11-12T18:15:01.443Z,101118.79
2022-11-12T18:17:53.568Z,101125.67
2022-11-12T18:20:48.084Z,101112.82
2022-11-12T18:23:44.028Z,101111.51
2022-11-12T18:26:36.632Z,101114.51
2022-11-12T18:29:27.440Z,101112.67
2022-11-12T18:32:18.924Z,101116.33
2022-11-12T18:35:11.776Z,101107.73
2022-11-12T18:38:03.051Z,101105.66
2022-11-12T18:41:07.137Z,101100.59
2022-11-12T18:43:59.408Z,101104.63
2022-11-12T18:46:53.772Z,101102.02
2022-11-12T18:49:46.665Z,101102.27
2022-11-12T18:52:38.435Z,101102.66
2022-11-12T18:55:30.874Z,101100.84
2022-11-12T18:58:21.523Z,101099.14
2022-11-12T19:01:21.247Z,101094.59
2022-11-12T19:04:13.877Z,101090.69
2022-11-12T19:07:05.923Z,101077.84
2022-11-12T19:09:58.615Z,101079.54
2022-11-12T19:12:51.171Z,101088.36
2022-11-12T19:15:42.490Z,101093.03
2022-11-12T19:18:33.737Z,101089.94
2022-11-12T19:21:28.027Z,101082.51
2022-11-12T19:24:19.169Z,101083.80
2022-11-12T19:27:12.356Z,101075.11
2022-11-12T19:30:03.744Z,101065.61
2022-11-12T19:32:56.468Z,101063.02
2022-11-12T19:35:47.681Z,101056.02
2022-11-12T19:38:41.191Z,101043.03
2022-11-12T19:41:32.942Z,101052.38
2022-11-12T19:44:24.551Z,101041.86
2022-11-12T19:47:16.269Z,101035.73
2022-11-12T19:50:10.066Z,101036.66
2022-11-12T19:53:01.429Z,101026.88
2022-11-12T19:55:52.891Z,101029.86
2022-11-12T19:58:48.989Z,101025.32
2022-11-12T20:01:41.169Z,101024.67
2022-11-12T20:04:32.680Z,101028.92
2022-11-12T20:07:23.841Z,101026.97
2022-11-12T20:10:15.194Z,101022.30
2022-11-12T20:13:07.332Z,101018.25
2022-11-12T20:15:58.692Z,101006.15
2022-11-12T20:18:51.087Z,101009.28
2022-11-12T20:21:42.956Z,101006.80
2022-11-12T20:24:34.241Z,101002.63
2022-11-12T20:27:26.505Z,100996.78
2022-11-12T20:30:19.407Z,100990.80
2022-11-12T20:33:10.364Z,100989.87
2022-11-12T20:36:14.017Z,100992.59
2022-11-12T20:39:05.090Z,100980.61
2022-11-12T20:41:56.177Z,100978.95
2022-11-12T20:44:47.452Z,100987.12
2022-11-12T20:47:38.577Z,100968.91
2022-11-12T20:50:29.360Z,100968.02
2022-11-12T20:53:20.350Z,100974.12
2022-11-12T20:56:14.885Z,100959.32
2022-11-12T20:59:06.374Z,100944.62
2022-11-12T21:01:58.126Z,100950.62
2022-11-12T21:04:49.098Z,100945.91
2022-11-12T21:07:40.567Z,100948.52
2022-11-12T21:10:33.078Z,100942.66
2022-11-12T21:13:24.505Z,100937.19
2022-11-12T21:16:16.139Z,100941.86
2022-11-12T21:19:07.740Z,100921.90
2022-11-12T21:21:59.314Z,100921.13
2022-11-12T21:24:50.099Z,100921.66
2022-11-12T21:27:41.581Z,100912.72
2022-11-12T21:30:33.819Z,100920.14
2022-11-12T21:33:24.913Z,100920.83
2022-11-12T21:36:16.672Z,100917.45
2022-11-12T21:39:08.885Z,100919.41
2022-11-12T21:41:59.897Z,100916.31
2022-11-12T21:44:51.702Z,100908.89
2022-11-12T21:47:43.161Z,100898.65
2022-11-12T21:50:34.618Z,100896.20
2022-11-12T21:53:25.859Z,100895.31
2022-11-12T21:56:21.101Z,100902.98
2022-11-12T21:59:11.706Z,100900.78
2022-11-12T22:02:03.580Z,100892.98
2022-11-12T22:04:55.077Z,100891.97
2022-11-12T22:07:46.450Z,100888.31
2022-11-12T22:10:38.439Z,100893.02
2022-11-12T22:13:29.305Z,100867.94
2022-11-12T22:16:26.241Z,100871.70
2022-11-12T22:19:19.745Z,100868.21
2022-11-12T22:22:11.341Z,100866.14
2022-11-12T22:25:02.246Z,100868.09
2022-11-12T22:27:53.304Z,100882.38
2022-11-12T22:30:44.435Z,100883.95
2022-11-12T22:33:36.249Z,100886.95
2022-11-12T22:36:31.067Z,100887.44
2022-11-12T22:39:21.651Z,100878.75
2022-11-12T22:42:12.555Z,100880.58
2022-11-12T22:45:03.795Z,100876.16
2022-11-12T22:47:55.543Z,100868.23
2022-11-12T22:50:47.102Z,100864.87
2022-11-12T22:53:38.070Z,100871.61
2022-11-12T22:56:30.118Z,100872.29
2022-11-12T22:59:21.182Z,100865.67
2022-11-12T23:02:12.318Z,100853.09
2022-11-12T23:05:03.796Z,100853.86
2022-11-12T23:07:55.000Z,100848.54
2022-11-12T23:10:47.168Z,100855.31
2022-11-12T23:13:38.857Z,100855.67
2022-11-12T23:16:31.726Z,100850.23
2022-11-12T23:19:23.512Z,100849.22
2022-11-12T23:22:14.920Z,100854.81
2022-11-12T23:25:06.437Z,100859.08
2022-11-12T23:27:57.217Z,100856.60
2022-11-12T23:30:52.557Z,100858.02
2022-11-12T23:33:48.221Z,100853.08
2022-11-12T23:36:39.032Z,100853.58
2022-11-12T23:39:29.576Z,100838.25
2022-11-12T23:42:20.642Z,100834.06
2022-11-12T23:45:12.596Z,100837.59
2022-11-12T23:48:03.903Z,100835.49
2022-11-12T23:51:04.853Z,100825.22
2022-11-12T23:53:55.420Z,100824.86
2022-11-12T23:56:46.983Z,100821.85
2022-11-12T23:59:38.407Z,100813.66
